Time;durP1;ratioP1;P1;durP2;ratioP2;P2;SDS_P1;SDS_P2;PMS_P1;PMS_P2;Temp;Humidity;BMP_temperature;BMP_pressure;BME280_temperature;BME280_humidity;BME280_pressure;Samples;Min_cycle;Max_cycle;Signal;HPM_P1;HPM_P2
2021/12/15 00:00:44;;;;;;;9.70;8.80;;;4.10;99.90;;;;;;5084722;27;20535;-54
2021/12/15 00:03:24;;;;;;;9.65;8.77;;;4.10;99.90;;;;;;5084046;28;20671;-57
2021/12/15 00:06:10;;;;;;;9.65;8.85;;;4.10;99.90;;;;;;5104094;27;20958;-54
2021/12/15 00:08:54;;;;;;;11.35;10.25;;;4.10;99.90;;;;;;5146733;27;20534;-55
2021/12/15 00:11:36;;;;;;;9.57;8.75;;;4.10;99.90;;;;;;5125492;27;20547;-56
2021/12/15 00:14:20;;;;;;;10.57;9.55;;;4.10;99.90;;;;;;5104790;27;20553;-56
2021/12/15 00:17:00;;;;;;;10.13;9.23;;;4.10;99.90;;;;;;5146340;27;20665;-55
2021/12/15 00:19:39;;;;;;;10.63;9.63;;;4.10;99.90;;;;;;5105547;27;20533;-54
2021/12/15 00:22:19;;;;;;;10.13;9.23;;;4.10;99.90;;;;;;5146430;27;20534;-54
2021/12/15 00:24:59;;;;;;;10.77;9.88;;;4.10;99.90;;;;;;5104339;27;20913;-56
2021/12/15 00:27:39;;;;;;;10.57;9.68;;;4.10;99.90;;;;;;5126030;27;20758;-54
2021/12/15 00:30:21;;;;;;;12.00;11.00;;;4.10;99.90;;;;;;5125175;27;20555;-55
2021/12/15 00:33:00;;;;;;;11.27;10.27;;;4.10;99.90;;;;;;5144609;27;20892;-55
2021/12/15 00:35:40;;;;;;;12.73;11.00;;;4.10;99.90;;;;;;5125120;27;20552;-54
2021/12/15 00:38:20;;;;;;;12.77;11.60;;;4.10;99.90;;;;;;5146411;27;20534;-54
2021/12/15 00:41:00;;;;;;;12.93;10.68;;;4.10;99.90;;;;;;5125576;27;20544;-56
2021/12/15 00:43:41;;;;;;;11.27;10.27;;;4.10;99.90;;;;;;5084717;28;20628;-56
2021/12/15 00:46:21;;;;;;;12.38;11.10;;;4.10;99.90;;;;;;5104316;27;20538;-54
2021/12/15 00:49:00;;;;;;;12.25;10.63;;;4.10;99.90;;;;;;5123827;27;20544;-55
2021/12/15 00:51:42;;;;;;;12.23;10.93;;;4.10;99.90;;;;;;5104819;27;20654;-56
2021/12/15 00:54:23;;;;;;;11.60;10.50;;;4.10;99.90;;;;;;5125605;27;20878;-55
2021/12/15 00:57:04;;;;;;;12.45;11.10;;;4.10;99.90;;;;;;5105208;27;20942;-56
2021/12/15 00:59:43;;;;;;;11.82;10.73;;;4.00;99.90;;;;;;5105552;27;21051;-54
2021/12/15 01:02:23;;;;;;;12.20;10.90;;;4.10;99.90;;;;;;5125074;27;20536;-55
2021/12/15 01:05:04;;;;;;;12.52;11.40;;;4.00;99.90;;;;;;5124889;27;20552;-56
2021/12/15 01:07:43;;;;;;;12.85;11.32;;;4.00;99.90;;;;;;5146335;27;20531;-55
2021/12/15 01:10:32;;;;;;;10.80;9.90;;;4.00;99.90;;;;;;5146516;27;20937;-54
2021/12/15 01:22:06;;;;;;;11.35;10.23;;;3.90;99.90;;;;;;5124707;27;20536;-54
2021/12/15 01:24:45;;;;;;;11.98;10.88;;;3.90;99.90;;;;;;5124445;27;20557;-56
2021/12/15 01:27:26;;;;;;;12.25;11.07;;;3.90;99.90;;;;;;5105507;27;21090;-54
2021/12/15 01:30:08;;;;;;;11.93;10.82;;;3.90;99.90;;;;;;5125467;27;20531;-54
2021/12/15 01:32:48;;;;;;;10.75;9.73;;;4.00;99.90;;;;;;5125316;27;20543;-56
2021/12/15 01:35:29;;;;;;;11.38;10.32;;;4.00;99.90;;;;;;5078504;22;21026;-55
2021/12/15 01:38:10;;;;;;;11.43;10.25;;;3.90;99.90;;;;;;5105232;27;20884;-55
2021/12/15 01:40:50;;;;;;;10.82;9.93;;;4.00;99.90;;;;;;5125386;27;20532;-55
2021/12/15 01:43:49;;;;;;;11.55;10.55;;;4.00;99.90;;;;;;5125250;27;20536;-55
2021/12/15 01:49:33;;;;;;;12.05;10.45;;;4.00;99.90;;;;;;5146842;27;20534;-55
2021/12/15 01:52:17;;;;;;;11.48;10.48;;;4.00;99.90;;;;;;5125099;27;20882;-55
2021/12/15 01:54:59;;;;;;;11.45;10.50;;;3.90;99.90;;;;;;5155432;27;20597;-55
2021/12/15 01:57:40;;;;;;;11.88;10.80;;;4.00;99.90;;;;;;5125536;27;20544;-55
2021/12/15 02:00:22;;;;;;;11.10;10.07;;;4.00;99.90;;;;;;5084712;28;20543;-55
2021/12/15 02:03:02;;;;;;;11.43;10.43;;;4.00;99.90;;;;;;5125153;27;20539;-55
2021/12/15 02:05:44;;;;;;;11.20;10.10;;;4.00;99.90;;;;;;5083875;27;20547;-55
2021/12/15 02:08:25;;;;;;;10.55;9.55;;;4.00;99.90;;;;;;5146440;27;20530;-55
2021/12/15 02:11:05;;;;;;;11.48;10.38;;;4.00;99.90;;;;;;5126206;27;20540;-55
2021/12/15 02:13:45;;;;;;;14.48;10.88;;;4.00;99.90;;;;;;5124957;27;20572;-55
2021/12/15 02:16:24;;;;;;;13.02;11.57;;;4.00;99.90;;;;;;5125273;27;20536;-55
2021/12/15 02:19:04;;;;;;;16.77;13.30;;;4.00;99.90;;;;;;5120808;27;20548;-55
2021/12/15 02:21:44;;;;;;;20.85;15.43;;;4.00;99.90;;;;;;5110714;27;20557;-55
2021/12/15 02:24:25;;;;;;;16.10;14.32;;;4.00;99.90;;;;;;5124886;27;20629;-55
2021/12/15 02:27:05;;;;;;;14.45;12.43;;;4.00;99.90;;;;;;5085023;28;20940;-55
2021/12/15 02:29:49;;;;;;;16.23;14.55;;;4.00;99.90;;;;;;5146343;27;20539;-55
2021/12/15 02:32:38;;;;;;;15.15;13.68;;;4.00;99.90;;;;;;5145980;27;20542;-55
2021/12/15 02:38:16;;;;;;;13.45;11.75;;;4.00;99.90;;;;;;5146088;27;20535;-55
2021/12/15 02:41:01;;;;;;;14.57;13.27;;;4.00;99.90;;;;;;5125561;27;20544;-55
2021/12/15 02:43:41;;;;;;;15.68;13.55;;;4.10;99.90;;;;;;5084355;28;20547;-55
2021/12/15 02:46:21;;;;;;;12.68;11.45;;;4.10;99.90;;;;;;5145202;27;20534;-55
2021/12/15 02:49:02;;;;;;;13.38;12.15;;;4.10;99.90;;;;;;5125426;27;20540;-55
2021/12/15 02:51:45;;;;;;;14.20;12.85;;;4.00;99.90;;;;;;5104654;27;20891;-53
2021/12/15 02:54:26;;;;;;;14.70;13.25;;;4.10;99.90;;;;;;5124995;27;20868;-55
2021/12/15 02:57:10;;;;;;;16.20;14.63;;;4.10;99.90;;;;;;5146273;27;20543;-55
2021/12/15 02:59:57;;;;;;;11.45;10.45;;;4.10;99.90;;;;;;5146506;27;20539;-55
2021/12/15 03:03:06;;;;;;;8.38;7.68;;;4.10;99.90;;;;;;5084395;28;20957;-55
2021/12/15 03:05:49;;;;;;;9.32;8.52;;;4.10;99.90;;;;;;5145195;27;20543;-55
2021/12/15 03:08:47;;;;;;;9.98;9.18;;;4.10;99.90;;;;;;5146315;27;20531;-55
2021/12/15 03:17:32;;;;;;;12.38;10.52;;;4.10;99.90;;;;;;5125688;27;20537;-55
2021/12/15 03:20:13;;;;;;;11.77;10.57;;;4.10;99.90;;;;;;5125610;27;20532;-55
2021/12/15 03:22:52;;;;;;;11.45;10.30;;;4.10;99.90;;;;;;5125061;27;20544;-55
2021/12/15 03:25:32;;;;;;;10.70;9.73;;;4.10;99.90;;;;;;5124688;27;20544;-55
2021/12/15 03:34:25;;;;;;;11.38;10.25;;;4.00;99.90;;;;;;5084704;28;20707;-55
2021/12/15 03:37:20;;;;;;;9.95;9.05;;;4.00;99.90;;;;;;5151098;27;20655;-55
2021/12/15 03:40:06;;;;;;;10.60;9.60;;;4.10;99.90;;;;;;5125650;27;20837;-55
2021/12/15 03:42:47;;;;;;;10.35;9.45;;;4.10;99.90;;;;;;5104575;27;20937;-55
2021/12/15 03:45:32;;;;;;;9.35;8.45;;;4.00;99.90;;;;;;5145293;27;20953;-55
2021/12/15 03:48:21;;;;;;;9.48;8.45;;;4.00;99.90;;;;;;5126017;27;20540;-55
2021/12/15 03:51:01;;;;;;;9.55;8.75;;;4.00;99.90;;;;;;5146254;27;20534;-55
2021/12/15 03:53:41;;;;;;;10.05;9.15;;;4.00;99.90;;;;;;5125179;27;20540;-55
2021/12/15 03:56:20;;;;;;;9.30;8.50;;;4.00;99.90;;;;;;5104532;27;20546;-55
2021/12/15 03:59:00;;;;;;;9.88;8.90;;;4.00;99.90;;;;;;5104830;27;20961;-55
2021/12/15 04:01:40;;;;;;;12.45;9.55;;;3.90;99.90;;;;;;5126152;27;20537;-55
2021/12/15 04:04:19;;;;;;;12.38;9.48;;;3.90;99.90;;;;;;5125144;27;20548;-53
2021/12/15 04:07:01;;;;;;;9.85;8.95;;;3.90;99.90;;;;;;5084844;28;20935;-55
2021/12/15 04:09:41;;;;;;;9.05;8.25;;;4.00;99.90;;;;;;5085037;28;20535;-55
2021/12/15 04:12:21;;;;;;;8.90;8.13;;;3.90;99.90;;;;;;5146137;27;20538;-55
2021/12/15 04:15:19;;;;;;;10.40;9.35;;;3.90;99.90;;;;;;5145773;27;20546;-55
2021/12/15 04:18:02;;;;;;;9.68;8.85;;;3.90;99.90;;;;;;5125699;27;21198;-55
2021/12/15 04:20:42;;;;;;;9.43;8.63;;;3.90;99.90;;;;;;5125794;27;21053;-55
2021/12/15 04:23:22;;;;;;;11.38;10.38;;;3.90;99.90;;;;;;5125608;27;20532;-55
2021/12/15 04:26:02;;;;;;;9.75;8.93;;;3.90;99.90;;;;;;5125487;27;20555;-55
2021/12/15 04:28:42;;;;;;;8.98;8.18;;;3.90;99.90;;;;;;5105303;27;20541;-55
2021/12/15 04:31:25;;;;;;;8.48;7.80;;;3.90;99.90;;;;;;5105432;27;20662;-55
2021/12/15 04:34:07;;;;;;;8.48;7.78;;;3.90;99.90;;;;;;5125843;27;20540;-55
2021/12/15 04:36:49;;;;;;;8.90;8.20;;;3.90;99.90;;;;;;5105620;27;20542;-55
2021/12/15 04:39:30;;;;;;;9.63;8.60;;;3.80;99.90;;;;;;5125619;27;20532;-55
2021/12/15 04:42:11;;;;;;;9.65;8.65;;;3.80;99.90;;;;;;5124587;27;20532;-55
2021/12/15 04:44:52;;;;;;;9.13;8.32;;;3.80;99.90;;;;;;5145867;27;21055;-55
2021/12/15 04:47:32;;;;;;;9.63;8.50;;;3.80;99.90;;;;;;5105024;27;20545;-55
2021/12/15 04:50:12;;;;;;;10.38;9.35;;;3.80;99.90;;;;;;5145024;27;20546;-55
2021/12/15 04:52:52;;;;;;;9.98;9.07;;;3.90;99.90;;;;;;5125234;27;21068;-55
2021/12/15 04:55:33;;;;;;;9.70;8.95;;;3.80;99.90;;;;;;5145327;27;20543;-55
2021/12/15 04:58:14;;;;;;;9.40;8.60;;;3.90;99.90;;;;;;5146421;27;20538;-55
2021/12/15 05:00:55;;;;;;;8.15;7.55;;;3.90;99.90;;;;;;5105269;27;20950;-55
2021/12/15 05:03:34;;;;;;;10.43;9.52;;;3.90;99.90;;;;;;5104907;27;20529;-55
2021/12/15 05:06:14;;;;;;;9.27;8.55;;;3.90;99.90;;;;;;5125526;27;20524;-55
2021/12/15 05:08:55;;;;;;;9.07;8.27;;;3.90;99.90;;;;;;5106058;27;20690;-56
2021/12/15 05:11:34;;;;;;;10.45;9.32;;;3.80;99.90;;;;;;5105646;27;21046;-55
2021/12/15 05:14:13;;;;;;;9.40;8.65;;;3.90;99.90;;;;;;5105334;27;20545;-55
2021/12/15 05:16:54;;;;;;;9.90;8.93;;;3.90;99.90;;;;;;5146793;27;20530;-55
2021/12/15 05:19:35;;;;;;;10.93;9.98;;;3.90;99.90;;;;;;5084739;27;20551;-55
2021/12/15 05:22:15;;;;;;;10.57;9.57;;;3.90;99.90;;;;;;5146054;27;20530;-55
2021/12/15 05:24:54;;;;;;;10.65;9.85;;;3.90;99.90;;;;;;5103659;27;20678;-55
2021/12/15 05:27:35;;;;;;;10.35;9.45;;;3.90;99.90;;;;;;5104853;27;20538;-55
2021/12/15 05:30:18;;;;;;;12.15;10.95;;;3.90;99.90;;;;;;5083996;27;20535;-55
2021/12/15 05:32:57;;;;;;;11.02;10.13;;;3.90;99.90;;;;;;5125296;27;20528;-55
2021/12/15 05:35:37;;;;;;;11.40;10.45;;;3.90;99.90;;;;;;5159533;27;20877;-55
2021/12/15 05:38:17;;;;;;;11.10;10.07;;;3.90;99.90;;;;;;5104505;27;20537;-55
2021/12/15 05:40:59;;;;;;;11.95;10.95;;;3.90;99.90;;;;;;5124748;27;20547;-55
2021/12/15 05:43:38;;;;;;;12.00;10.90;;;3.90;99.90;;;;;;5124345;27;20887;-55
2021/12/15 05:46:17;;;;;;;12.80;11.73;;;3.90;99.90;;;;;;5144778;27;20550;-55
2021/12/15 05:48:58;;;;;;;12.73;11.63;;;3.90;99.90;;;;;;5145699;27;20543;-55
2021/12/15 05:51:37;;;;;;;11.18;10.27;;;3.90;99.90;;;;;;5125720;27;20532;-55
2021/12/15 05:54:18;;;;;;;12.80;11.70;;;3.90;99.90;;;;;;5125026;27;20544;-55
2021/12/15 05:56:57;;;;;;;11.20;10.30;;;3.90;99.90;;;;;;5125599;27;20655;-55
2021/12/15 05:59:37;;;;;;;10.52;9.60;;;3.90;99.90;;;;;;5125656;27;20544;-55
2021/12/15 06:02:17;;;;;;;9.25;8.45;;;3.90;99.90;;;;;;5125261;27;20540;-55
2021/12/15 06:04:56;;;;;;;9.60;8.73;;;3.90;99.90;;;;;;5145162;27;20542;-55
2021/12/15 06:07:36;;;;;;;8.48;7.88;;;3.90;99.90;;;;;;5146182;27;20538;-55
2021/12/15 06:10:21;;;;;;;7.93;7.32;;;3.80;99.90;;;;;;5125767;27;20540;-55
2021/12/15 06:13:02;;;;;;;9.30;8.40;;;3.90;99.90;;;;;;5146237;27;20542;-55
2021/12/15 06:15:44;;;;;;;9.55;8.75;;;3.80;99.90;;;;;;5084200;28;20563;-55
2021/12/15 06:18:24;;;;;;;10.05;9.25;;;3.80;99.90;;;;;;5085266;27;20547;-55
2021/12/15 06:21:03;;;;;;;9.45;8.65;;;3.80;99.90;;;;;;5146166;27;20542;-55
2021/12/15 06:23:47;;;;;;;11.13;10.23;;;3.80;99.90;;;;;;5157014;27;20533;-55
2021/12/15 06:26:27;;;;;;;10.85;9.95;;;3.80;99.90;;;;;;5124770;27;20531;-55
2021/12/15 06:29:06;;;;;;;9.60;8.90;;;3.80;99.90;;;;;;5146569;27;20936;-55
2021/12/15 06:31:46;;;;;;;8.70;8.00;;;3.80;99.90;;;;;;5084242;27;20539;-55
2021/12/15 06:34:26;;;;;;;8.98;8.27;;;3.80;99.90;;;;;;5145195;27;20551;-55
2021/12/15 06:37:06;;;;;;;8.32;7.63;;;3.80;99.90;;;;;;5084803;28;20547;-55
2021/12/15 06:39:45;;;;;;;8.45;7.75;;;3.80;99.90;;;;;;5105309;27;20534;-55
2021/12/15 06:42:25;;;;;;;7.88;7.28;;;3.80;99.90;;;;;;5104817;27;20533;-55
2021/12/15 06:45:06;;;;;;;9.80;9.02;;;3.80;99.90;;;;;;5144577;27;21082;-55
2021/12/15 06:59:36;;;;;;;7.65;7.05;;;3.90;99.90;;;;;;5146379;27;20957;-55
2021/12/15 07:02:17;;;;;;;8.02;7.20;;;3.90;99.90;;;;;;5145991;27;20542;-55
2021/12/15 07:04:56;;;;;;;9.13;8.32;;;3.90;99.90;;;;;;5144500;27;20557;-55
2021/12/15 07:07:36;;;;;;;8.55;7.85;;;3.90;99.90;;;;;;5125665;27;20544;-55
2021/12/15 07:10:20;;;;;;;8.07;7.43;;;3.90;99.90;;;;;;5146103;27;20562;-54
2021/12/15 07:13:01;;;;;;;7.70;7.10;;;3.90;99.90;;;;;;5105084;27;21059;-55
2021/12/15 07:15:40;;;;;;;8.90;8.20;;;3.90;99.90;;;;;;5124939;27;20548;-54
2021/12/15 07:18:27;;;;;;;9.02;8.32;;;3.90;99.90;;;;;;5105322;27;20530;-55
2021/12/15 07:21:10;;;;;;;8.50;7.80;;;3.90;99.90;;;;;;5125733;27;20536;-55
2021/12/15 07:23:52;;;;;;;9.00;8.00;;;3.90;99.90;;;;;;5145385;27;20546;-55
2021/12/15 07:26:32;;;;;;;8.35;7.65;;;3.90;99.90;;;;;;5084558;27;20549;-55
2021/12/15 07:29:12;;;;;;;8.77;8.07;;;4.00;99.90;;;;;;5125723;27;20532;-55
2021/12/15 07:31:52;;;;;;;8.38;7.63;;;4.00;99.90;;;;;;5146081;27;20530;-55
2021/12/15 07:34:32;;;;;;;8.25;7.55;;;4.00;99.90;;;;;;5111719;22;20599;-57
2021/12/15 07:37:11;;;;;;;9.68;8.88;;;4.10;99.90;;;;;;5084879;27;20551;-57
2021/12/15 07:39:58;;;;;;;9.23;8.52;;;4.10;99.90;;;;;;5146323;27;20542;-57
2021/12/15 07:42:43;;;;;;;9.88;9.07;;;4.10;99.90;;;;;;5145931;27;21089;-57
2021/12/15 07:45:23;;;;;;;10.73;9.73;;;4.10;99.90;;;;;;5104538;27;20546;-57
2021/12/15 07:48:04;;;;;;;10.43;9.55;;;4.20;99.90;;;;;;5126062;27;20682;-58
2021/12/15 07:50:46;;;;;;;10.30;9.48;;;4.20;99.90;;;;;;5085387;28;20574;-57
2021/12/15 07:53:25;;;;;;;9.63;8.93;;;4.30;99.90;;;;;;5125590;27;20524;-57
2021/12/15 07:56:05;;;;;;;10.32;9.43;;;4.30;99.90;;;;;;5146031;27;20538;-57
2021/12/15 07:58:44;;;;;;;9.65;8.93;;;4.30;99.90;;;;;;5105681;27;21281;-57
2021/12/15 08:01:24;;;;;;;9.10;8.40;;;4.30;99.90;;;;;;5105651;27;20549;-57
2021/12/15 08:04:04;;;;;;;8.73;8.02;;;4.30;99.90;;;;;;5085280;27;20547;-57
2021/12/15 08:06:45;;;;;;;9.27;8.57;;;4.30;99.90;;;;;;5105796;27;20533;-57
2021/12/15 08:09:25;;;;;;;9.77;8.98;;;4.40;99.90;;;;;;5105650;27;20537;-57
2021/12/15 08:12:06;;;;;;;9.18;8.48;;;4.40;99.90;;;;;;5146680;27;20538;-57
2021/12/15 08:14:45;;;;;;;9.05;8.35;;;4.50;99.90;;;;;;5084513;27;20551;-57
2021/12/15 08:17:25;;;;;;;9.00;8.40;;;4.50;99.90;;;;;;5147259;27;20546;-57
2021/12/15 08:20:07;;;;;;;8.55;7.82;;;4.60;99.90;;;;;;5146251;27;21070;-57
2021/12/15 08:22:46;;;;;;;8.88;8.13;;;4.60;99.90;;;;;;5146333;27;20535;-57
2021/12/15 08:25:27;;;;;;;9.25;8.57;;;4.60;99.90;;;;;;5125522;27;20556;-57
2021/12/15 08:28:07;;;;;;;9.55;8.95;;;4.70;99.90;;;;;;5147168;27;21070;-57
2021/12/15 08:30:47;;;;;;;9.93;9.18;;;4.70;99.90;;;;;;5084263;27;20547;-57
2021/12/15 08:33:28;;;;;;;10.10;9.30;;;4.70;99.90;;;;;;5121606;27;20555;-57
2021/12/15 08:36:09;;;;;;;10.30;9.50;;;4.80;99.90;;;;;;5086028;27;20893;-58
2021/12/15 08:38:51;;;;;;;9.00;8.40;;;4.80;99.90;;;;;;5104609;27;20598;-57
2021/12/15 08:41:31;;;;;;;9.35;8.65;;;4.90;99.90;;;;;;5125379;27;20540;-57
2021/12/15 08:44:11;;;;;;;8.55;7.90;;;5.00;99.90;;;;;;5147673;27;20538;-57
2021/12/15 08:46:51;;;;;;;8.57;7.97;;;5.00;99.90;;;;;;5146485;27;20550;-57
2021/12/15 08:49:31;;;;;;;8.75;7.97;;;5.10;99.90;;;;;;5146057;27;21001;-57
2021/12/15 08:52:11;;;;;;;8.98;8.30;;;5.10;99.90;;;;;;5104938;27;20554;-57
2021/12/15 08:54:50;;;;;;;9.30;8.50;;;5.20;99.90;;;;;;5104040;27;20846;-57
2021/12/15 08:57:30;;;;;;;8.55;7.95;;;5.30;99.90;;;;;;5125004;27;20539;-57
2021/12/15 09:00:11;;;;;;;8.65;8.02;;;5.30;99.90;;;;;;5104595;27;20542;-57
2021/12/15 09:02:53;;;;;;;8.23;7.63;;;5.30;99.90;;;;;;5104451;27;20549;-57
2021/12/15 09:05:33;;;;;;;8.57;7.97;;;5.30;99.90;;;;;;5084038;27;20792;-57
2021/12/15 09:08:14;;;;;;;7.47;6.97;;;5.30;99.90;;;;;;5125944;27;20552;-57
2021/12/15 09:10:56;;;;;;;7.15;6.65;;;5.40;99.90;;;;;;5084755;28;20544;-57
2021/12/15 09:13:36;;;;;;;7.43;6.82;;;5.40;99.90;;;;;;5145684;27;20620;-57
2021/12/15 09:16:15;;;;;;;7.90;7.40;;;5.50;99.90;;;;;;5164919;27;20548;-57
2021/12/15 09:18:56;;;;;;;8.30;7.70;;;5.60;99.90;;;;;;5126322;27;20528;-57
2021/12/15 09:21:38;;;;;;;8.52;7.82;;;5.60;99.90;;;;;;5105385;27;21051;-57
2021/12/15 09:24:19;;;;;;;8.30;7.68;;;5.60;99.90;;;;;;5125040;27;20540;-57
2021/12/15 09:26:58;;;;;;;8.30;7.70;;;5.70;99.90;;;;;;5104956;27;21133;-57
2021/12/15 09:29:38;;;;;;;9.00;8.30;;;5.60;99.90;;;;;;5146089;27;20539;-57
2021/12/15 09:32:17;;;;;;;10.55;9.60;;;5.70;99.90;;;;;;5125938;27;20540;-57
2021/12/15 09:34:57;;;;;;;9.73;8.60;;;5.70;99.90;;;;;;5145207;27;20542;-57
2021/12/15 09:37:37;;;;;;;10.18;8.60;;;5.80;99.90;;;;;;5083817;27;20547;-57
2021/12/15 09:40:19;;;;;;;9.57;8.77;;;5.90;99.90;;;;;;5103092;27;20549;-55
2021/12/15 09:42:58;;;;;;;8.98;8.18;;;6.00;99.90;;;;;;5084783;27;20524;-57
2021/12/15 09:45:47;;;;;;;10.82;9.93;;;6.10;99.90;;;;;;5083866;27;20563;-57
2021/12/15 09:57:26;;;;;;;9.20;8.43;;;6.20;99.90;;;;;;5146738;27;20693;-57
2021/12/15 10:03:09;;;;;;;11.73;10.73;;;6.30;99.90;;;;;;5145661;27;20531;-57
2021/12/15 10:05:56;;;;;;;11.45;10.55;;;6.30;99.90;;;;;;5124575;27;20548;-57
2021/12/15 10:17:44;;;;;;;11.45;10.50;;;6.70;99.90;;;;;;5146422;27;20542;-55
2021/12/15 10:20:27;;;;;;;11.05;10.05;;;6.70;99.90;;;;;;5105184;27;20974;-57
2021/12/15 10:23:08;;;;;;;11.32;10.32;;;6.80;99.90;;;;;;5152437;27;20537;-57
2021/12/15 10:25:49;;;;;;;10.60;9.60;;;6.80;99.90;;;;;;5104428;27;20550;-57
2021/12/15 10:28:31;;;;;;;10.48;9.48;;;6.90;99.90;;;;;;5125650;27;20536;-57
2021/12/15 10:31:13;;;;;;;11.23;10.32;;;7.00;99.90;;;;;;5084433;28;20562;-57
2021/12/15 10:33:55;;;;;;;10.98;10.10;;;7.10;99.90;;;;;;5145675;27;20543;-56
2021/12/15 10:36:35;;;;;;;10.80;9.80;;;7.20;99.90;;;;;;5104458;27;20538;-57
2021/12/15 10:39:14;;;;;;;9.77;8.98;;;7.20;99.90;;;;;;5104892;27;20553;-57
2021/12/15 10:41:56;;;;;;;11.40;10.48;;;7.30;99.90;;;;;;5103104;27;20568;-56
2021/12/15 10:44:35;;;;;;;10.25;9.45;;;7.30;99.90;;;;;;5083537;28;20684;-56
2021/12/15 10:47:23;;;;;;;11.80;10.73;;;7.40;99.90;;;;;;5125497;27;20540;-57
2021/12/15 10:50:03;;;;;;;11.10;10.18;;;7.50;99.90;;;;;;5146024;27;20550;-57
2021/12/15 10:52:53;;;;;;;12.18;11.18;;;7.60;99.90;;;;;;5104221;27;20549;-56
2021/12/15 10:55:35;;;;;;;11.73;10.82;;;7.60;99.90;;;;;;5124348;27;20568;-57
2021/12/15 10:58:38;;;;;;;11.35;10.38;;;7.60;99.90;;;;;;5126007;27;20532;-57
2021/12/15 11:01:53;;;;;;;11.23;10.27;;;7.70;99.90;;;;;;5105013;27;20541;-57
2021/12/15 11:04:39;;;;;;;10.63;9.65;;;7.70;99.90;;;;;;5084044;27;20599;-57
2021/12/15 11:07:30;;;;;;;9.90;9.10;;;7.70;99.90;;;;;;5105179;27;20545;-57
2021/12/15 11:10:12;;;;;;;9.70;8.95;;;7.60;99.90;;;;;;5125558;27;20539;-55
2021/12/15 11:12:57;;;;;;;9.75;8.95;;;7.50;99.90;;;;;;5145920;27;20596;-57
2021/12/15 11:15:40;;;;;;;10.07;9.27;;;7.40;99.90;;;;;;5145408;27;20551;-57
2021/12/15 11:18:21;;;;;;;9.60;8.90;;;7.30;99.90;;;;;;5125634;27;20543;-57
2021/12/15 11:21:03;;;;;;;10.45;9.55;;;7.30;99.90;;;;;;5125922;27;21237;-57
2021/12/15 11:23:42;;;;;;;10.13;9.32;;;7.20;99.90;;;;;;5084150;28;20554;-57
2021/12/15 11:26:22;;;;;;;9.85;9.05;;;7.10;99.90;;;;;;5145569;27;20627;-57
2021/12/15 11:29:13;;;;;;;10.10;9.30;;;7.10;99.90;;;;;;5105091;27;20664;-57
2021/12/15 11:31:53;;;;;;;9.95;9.25;;;6.90;99.90;;;;;;5146041;27;20908;-57
2021/12/15 11:34:33;;;;;;;9.75;8.88;;;6.80;99.90;;;;;;5104165;27;21226;-55
2021/12/15 11:37:12;;;;;;;9.30;8.43;;;6.90;99.90;;;;;;5146082;27;20538;-57
2021/12/15 11:40:02;;;;;;;9.18;8.48;;;7.00;99.90;;;;;;5145948;27;20539;-57
2021/12/15 11:42:44;;;;;;;9.45;8.75;;;7.00;99.90;;;;;;5104722;27;20956;-56
2021/12/15 11:45:24;;;;;;;10.85;10.05;;;6.90;99.90;;;;;;5124853;27;20552;-57
2021/12/15 11:48:20;;;;;;;9.88;9.10;;;6.80;99.90;;;;;;5146233;27;20547;-57
2021/12/15 11:51:02;;;;;;;10.13;9.32;;;6.80;99.90;;;;;;5146162;27;20546;-57
2021/12/15 11:53:47;;;;;;;9.70;9.00;;;6.90;99.90;;;;;;5125169;27;20548;-56
2021/12/15 11:56:31;;;;;;;10.25;9.55;;;7.00;99.90;;;;;;5104411;27;20970;-57
2021/12/15 11:59:20;;;;;;;10.35;9.55;;;7.10;99.90;;;;;;5105457;27;20553;-56
2021/12/15 12:02:03;;;;;;;10.90;10.10;;;7.10;99.90;;;;;;5145881;27;20539;-57
2021/12/15 12:04:46;;;;;;;10.30;9.50;;;7.20;99.90;;;;;;5151299;27;20913;-57
2021/12/15 12:07:28;;;;;;;10.05;9.25;;;7.30;99.90;;;;;;5146207;27;20636;-57
2021/12/15 12:10:11;;;;;;;10.32;9.52;;;7.30;99.90;;;;;;5146158;27;20539;-57
2021/12/15 12:13:02;;;;;;;10.45;9.60;;;7.30;99.90;;;;;;5145858;27;21082;-56
2021/12/15 12:15:42;;;;;;;10.68;9.88;;;7.30;99.90;;;;;;5103944;27;20554;-56
2021/12/15 12:18:24;;;;;;;9.48;8.63;;;7.30;99.90;;;;;;5146144;27;20530;-55
2021/12/15 12:21:07;;;;;;;9.93;9.10;;;7.30;99.90;;;;;;5146305;27;20546;-57
2021/12/15 12:23:49;;;;;;;9.60;8.82;;;7.30;99.90;;;;;;5084149;28;20757;-56
2021/12/15 12:26:31;;;;;;;10.73;9.75;;;7.30;99.90;;;;;;5084695;28;20543;-57
2021/12/15 12:29:12;;;;;;;9.05;8.35;;;7.30;99.90;;;;;;5125526;27;21096;-57
2021/12/15 12:31:52;;;;;;;9.40;8.70;;;7.40;99.90;;;;;;5146402;27;20554;-57
2021/12/15 12:34:32;;;;;;;10.43;9.63;;;7.40;99.90;;;;;;5149365;27;20690;-57
2021/12/15 12:37:17;;;;;;;9.18;8.50;;;7.50;99.90;;;;;;5125515;27;21068;-57
2021/12/15 12:40:04;;;;;;;10.05;9.25;;;7.40;99.90;;;;;;5084639;27;20555;-57
2021/12/15 12:42:43;;;;;;;13.00;11.80;;;7.40;99.90;;;;;;5104898;27;20599;-57
2021/12/15 12:45:33;;;;;;;11.77;10.77;;;7.40;99.90;;;;;;5124667;27;20560;-57
2021/12/15 13:00:43;;;;;;;8.80;8.13;;;7.30;99.90;;;;;;5083696;28;21027;-57
2021/12/15 13:03:34;;;;;;;9.65;8.93;;;7.30;99.90;;;;;;5114200;27;20687;-57
2021/12/15 13:06:26;;;;;;;10.35;9.55;;;7.20;99.90;;;;;;5074425;27;20553;-57
2021/12/15 13:09:10;;;;;;;9.13;8.32;;;7.20;99.90;;;;;;5103992;27;20538;-57
2021/12/15 13:11:51;;;;;;;8.20;7.53;;;7.10;99.90;;;;;;5135856;27;20688;-57
2021/12/15 13:14:37;;;;;;;8.60;8.00;;;7.10;99.90;;;;;;5100191;27;20907;-57
2021/12/15 13:17:21;;;;;;;8.70;8.10;;;7.00;99.90;;;;;;5145107;27;20986;-57
2021/12/15 13:20:01;;;;;;;9.27;8.57;;;7.00;99.90;;;;;;5145149;27;20669;-57
2021/12/15 13:23:02;;;;;;;9.07;8.48;;;7.00;99.90;;;;;;5083141;27;20548;-57
2021/12/15 13:28:48;;;;;;;9.75;8.95;;;6.90;99.90;;;;;;5083565;28;20675;-57
2021/12/15 13:31:29;;;;;;;8.68;7.97;;;6.90;99.90;;;;;;5103945;27;20530;-57
2021/12/15 13:34:12;;;;;;;9.93;9.02;;;6.90;99.90;;;;;;5122964;27;20544;-56
2021/12/15 13:36:51;;;;;;;9.98;9.23;;;6.90;99.90;;;;;;5153262;22;21088;-56
2021/12/15 13:39:45;;;;;;;9.27;8.48;;;6.80;99.90;;;;;;5083373;27;21082;-55
2021/12/15 13:42:52;;;;;;;9.57;8.88;;;6.80;99.90;;;;;;5081972;28;20579;-54
2021/12/15 13:45:33;;;;;;;7.93;7.32;;;6.70;99.90;;;;;;5077108;28;20717;-54
2021/12/15 13:48:12;;;;;;;8.65;7.85;;;6.60;99.90;;;;;;5136322;27;20679;-56
2021/12/15 13:50:52;;;;;;;8.23;7.57;;;6.60;99.90;;;;;;5083957;27;20549;-55
2021/12/15 13:53:33;;;;;;;8.02;7.43;;;6.50;99.90;;;;;;5136025;27;20667;-56
2021/12/15 13:56:13;;;;;;;9.23;8.27;;;6.50;99.90;;;;;;5071404;27;20568;-55
2021/12/15 13:58:53;;;;;;;7.68;6.93;;;6.40;99.90;;;;;;5083118;27;20551;-54
2021/12/15 14:01:33;;;;;;;8.50;7.90;;;6.30;99.90;;;;;;5083670;28;20668;-55
2021/12/15 14:04:13;;;;;;;7.70;7.15;;;6.20;99.90;;;;;;5082255;28;21051;-55
2021/12/15 14:06:53;;;;;;;8.60;8.00;;;6.10;99.90;;;;;;5066426;28;20677;-55
2021/12/15 14:09:33;;;;;;;8.63;8.02;;;6.10;99.90;;;;;;5083171;27;20555;-56
2021/12/15 14:12:12;;;;;;;8.65;7.82;;;6.10;99.90;;;;;;5103525;27;20673;-54
2021/12/15 14:14:53;;;;;;;9.25;8.55;;;6.10;99.90;;;;;;5082075;28;20628;-56
2021/12/15 14:17:32;;;;;;;7.53;7.03;;;6.00;99.90;;;;;;5139982;27;21063;-56
2021/12/15 14:20:14;;;;;;;8.77;8.07;;;6.00;99.90;;;;;;5144266;27;20535;-54
2021/12/15 14:22:58;;;;;;;9.10;8.40;;;5.90;99.90;;;;;;5074725;28;20676;-56
2021/12/15 14:25:39;;;;;;;9.88;9.18;;;5.90;99.90;;;;;;5075869;28;21215;-54
2021/12/15 14:28:22;;;;;;;10.00;9.20;;;5.90;99.90;;;;;;5124086;27;20663;-55
2021/12/15 14:31:05;;;;;;;9.23;8.52;;;5.90;99.90;;;;;;5136413;27;20540;-55
2021/12/15 14:33:48;;;;;;;9.23;8.60;;;5.80;99.90;;;;;;5135587;27;20540;-55
2021/12/15 14:36:31;;;;;;;10.15;9.45;;;5.80;99.90;;;;;;5075383;27;20551;-56
2021/12/15 14:39:13;;;;;;;10.52;9.73;;;5.80;99.90;;;;;;5083437;28;21196;-54
2021/12/15 14:41:56;;;;;;;12.82;11.90;;;5.70;99.90;;;;;;5100784;27;20983;-56
2021/12/15 14:44:40;;;;;;;10.52;9.73;;;5.70;99.90;;;;;;5082380;27;20584;-54
2021/12/15 14:47:22;;;;;;;11.48;10.43;;;5.70;99.90;;;;;;5083829;27;20535;-54
2021/12/15 14:50:06;;;;;;;11.40;10.60;;;5.60;99.90;;;;;;5083323;28;20660;-54
2021/12/15 14:52:47;;;;;;;10.48;9.63;;;5.60;99.90;;;;;;5137333;27;21018;-56
2021/12/15 14:55:29;;;;;;;9.30;8.70;;;5.60;99.90;;;;;;5077370;28;20670;-54
2021/12/15 14:58:18;;;;;;;9.68;8.88;;;5.50;99.90;;;;;;5083684;27;21067;-55
2021/12/15 15:00:57;;;;;;;8.40;7.80;;;5.50;99.90;;;;;;5123826;27;20664;-57
2021/12/15 15:03:37;;;;;;;8.55;7.95;;;5.40;99.90;;;;;;5082787;27;20887;-55
2021/12/15 15:06:25;;;;;;;8.65;7.90;;;5.40;99.90;;;;;;5071036;28;20690;-55
2021/12/15 15:09:16;;;;;;;9.32;8.50;;;5.40;99.90;;;;;;5083302;28;20661;-55
2021/12/15 15:12:04;;;;;;;9.40;8.60;;;5.30;99.90;;;;;;5124764;27;20544;-55
2021/12/15 15:14:50;;;;;;;10.63;9.82;;;5.30;99.90;;;;;;5103614;27;20538;-56
2021/12/15 15:17:36;;;;;;;9.48;8.77;;;5.20;99.90;;;;;;5145375;27;20534;-56
2021/12/15 15:20:17;;;;;;;9.55;8.82;;;5.20;99.90;;;;;;5083422;28;20668;-56
2021/12/15 15:23:00;;;;;;;10.10;9.38;;;5.10;99.90;;;;;;5084233;27;20540;-54